Markham, TX (77456)

1:37 PM CDT on July 25, 2014 (GMT -0500)
Bay City (KBYY) Elev 46 ft | 28.97 °N, 95.86 °W | Change Station

Current weather conditions updated 22 minutes ago

Partly Cloudy
Partly Cloudy
87 °F
Feels Like 94 °F
N
4
Wind Variable Wind from WSW

Today is forecast to be Warmer than yesterday.

Today
High -- | Low -- °F
--% Chance of Precip.
Yesterday
High -- | Low -- °F
Precip. -- in
6:41 AM 8:20 PM
Waning Crescent, 1% visible
Pressure 30.03 in
Visibility 10.0 miles
Clouds Clear
Heat Index 94 °F
Dew Point 73 °F
Humidity 63%
Rainfall 0.00 in
Snow Depth Not available.
UV 12 out of 12
Pollen 4.00 out of 12
Air Quality Not available.
Flu Activity Not available.
METAR KBYY 251815Z AUTO 25003KT 10SM CLR 31/22 A3003 RMK AO2 T03050227

More Conditions Fewer Conditions

Pressure 30.03 in
Visibility 10.0 miles
Clouds Clear
Heat Index 94 °F
Dew Point 73 °F
Humidity 63%
Rainfall 0.00 in
Snow Depth Not available.
UV 12 out of 12
Pollen 4.00 out of 12
Air Quality Not available.
Flu Activity Not available.
METAR KBYY 251815Z AUTO 25003KT 10SM CLR 31/22 A3003 RMK AO2 T03050227

More Conditions Fewer Conditions

10-Day Weather Forecast

Almanac

Astronomy

Jul. 25, 2014 Rise Set
Actual Time 6:41 AM CDT 8:20 PM CDT
Civil Twilight 6:15 AM CDT 8:46 PM CDT
Nautical Twilight 5:44 AM CDT 9:17 PM CDT
Astronomical Twilight 5:11 AM CDT 9:49 PM CDT
Moon 5:38 AM CDT 7:22 PM CDT
Length of Visible Light 14h 30m
Length of Day
13h 38m
Tomorrow will be 1m 9s shorter.
Waning Crescent, 1% of the Moon is Illuminated
Today
Waning Crescent
Jul 26
New
Aug 3
First Quarter
Aug 10
Full
Aug 17
Last Quarter

Today's Extremes

State Highs State Lows

Community

WunderPhotos

Upload Photos

1,737,373 photos uploaded!

Nearby

Snow Depth

Station Depth Elevation
No new snow has been reported.

Earthquake Activity

City Distance Mag. Time & Date
No recent earthquake activity has been reported nearby.
Minimum magnitude displayed is 2.5.

Coastal Water Temperatures

Place Temperature
Seadrift, TX 88.0 °F
Rockport, TX 89.1 °F
USCG Freeport, TX 87.1 °F

Nearby Weather Stations

Station Location Temp. Heat Index Dew Point Humidity Wind Precip. Elev Updated Type
MesoWest BAYCTY , Bay City, TX 98 °F 93 °F - - North  at  - 0.00 in / hr 48 ft 12:35 PM CDT MADIS
Selkirk Island, Bay City, TX 91.9 °F 109 °F 79 °F 66% ESE  at  1.7 mph - / hr 43 ft 1:33 PM CDT Normal
MesoWest ALNHST , Old Ocean, TX 91 °F 87 °F - - North  at  - 0.00 in / hr 40 ft 11:40 AM CDT MADIS
Matagorda, TX 96.3 °F 112 °F 77 °F 54% South  at  2.0 mph 0.00 in / hr 10 ft 2:13 PM EDT Rapid Fire
FM1160, Louise, TX 95.7 °F 109 °F 76 °F 53% North  at  - 0.00 in / hr 105 ft 1:36 PM CDT Normal

Show More Stations Show Fewer Stations